Terminal Aerodrome Forecast
Issued by NWS Buffalo, NY

Home | Current Version | Previous Version | Text Only | Print | Product List | Glossary On
Versions: 1 2 3 4 5 6 7 8 9 10 11 12 13 14 15 16 17 18 19 20 21 22 23 24 25 26 27 28
784
FTUS41 KBUF 262107 AAA
TAFROC
TAF AMD
KROC 262107Z 2621/2718 21006KT P6SM SCT080 OVC200
     FM270000 VRB04KT P6SM SCT100 OVC200
     FM270500 17004KT P6SM VCSH BKN060
     FM271200 24006KT P6SM OVC060
     FM271500 26005KT P6SM OVC045=

USA.gov is the U.S. government's official web portal to all federal, state and local government web resources and services.